F/V Manathia — FGSL — position and weather

sailwx.info

Track history (hours):
 
Tides and Currents Weather Stations Pressure Air Temp Water Temp Dewpoint Dewpoint Depression Visibility Wind Speed Wind Dir Waves Ship Positions

F/V Manathia

Last reported at 2017-Sep-22 01:06 UTC. Time now 2017-Sep-22 17:04 UTC.
Position N 47°40' W 004°57'.

Length 16 m.

Type: Fishing. MMSI: 228258000.

Date/timePositionNaut miles runAvg speedWind from/ knotsBaromVisibWave heightAir tempDewpointWater temp
2017-Sep-22 01:06N 47°40' W 004°57'0 3.3
2017-Sep-22 01:00N 47°41' W 004°57'2 3.4
2017-Sep-22 00:30N 47°40' W 004°54'1 2.4
2017-Sep-21 23:54N 47°39' W 004°53'8 2.9
2017-Sep-21 21:01N 47°31' W 004°54'22 3.9
2017-Sep-21 15:21N 47°43' W 004°26'3 8.2
2017-Sep-21 14:58N 47°45' W 004°23'23 3.3
2017-Sep-21 07:55N 47°40' W 004°57'1 3.2
2017-Sep-21 07:27N 47°40' W 004°55'1 1.3
2017-Sep-21 06:30N 47°39' W 004°53'3 1.2
2017-Sep-21 03:54N 47°40' W 004°58'1 3.0
2017-Sep-21 03:30N 47°41' W 004°56'1 2.9
2017-Sep-21 03:00N 47°42' W 004°55'1 0.8
2017-Sep-21 01:58N 47°43' W 004°55'1 2.7
2017-Sep-21 01:27N 47°44' W 004°55'1 2.9
2017-Sep-21 01:00N 47°45' W 004°53'2 2.9
2017-Sep-21 00:29N 47°43' W 004°54'2 3.9
2017-Sep-20 23:59N 47°42' W 004°55'2 3.7
2017-Sep-20 23:30N 47°41' W 004°53'2 3.8
2017-Sep-20 22:53N 47°40' W 004°49'1 1.1
2017-Sep-20 22:27N 47°40' W 004°49'6 3.3
2017-Sep-20 20:43N 47°41' W 004°57'1 3.4
2017-Sep-20 20:26N 47°42' W 004°58'1 3.2
2017-Sep-20 20:00N 47°42' W 004°56'2 3.3
2017-Sep-20 19:30N 47°41' W 004°54'2 3.4
2017-Sep-20 18:58N 47°40' W 004°51'1 0.9
2017-Sep-20 18:08N 47°40' W 004°52'1 3.3
2017-Sep-20 17:56N 47°40' W 004°53'1 3.1
2017-Sep-20 17:30N 47°38' W 004°54'2 3.1
2017-Sep-20 16:59N 47°37' W 004°54'2 3.0
2017-Sep-20 16:28N 47°35' W 004°54'2 3.2
2017-Sep-20 15:57N 47°34' W 004°55'2 3.2
2017-Sep-20 15:17N 47°32' W 004°56'1 3.1
2017-Sep-20 14:56N 47°31' W 004°55'3 2.9
2017-Sep-20 14:00N 47°30' W 004°51'2 3.0
2017-Sep-20 13:30N 47°30' W 004°49'4 2.9
2017-Sep-20 12:10N 47°31' W 004°43'1 3.0
2017-Sep-20 11:59N 47°31' W 004°42'2 3.1
2017-Sep-20 11:27N 47°33' W 004°41'2 3.1
2017-Sep-20 10:54N 47°34' W 004°40'1 3.3
2017-Sep-20 10:30N 47°35' W 004°38'3 4.7
2017-Sep-20 09:56N 47°36' W 004°35'4 8.3
2017-Sep-20 09:28N 47°39' W 004°31'4 8.4
2017-Sep-20 08:58N 47°42' W 004°26'8 8.3
2017-Sep-20 08:03N 47°47' W 004°18'1 6.9
2017-Sep-20 07:58N 47°47' W 004°17'1 0.0
2017-Sep-19 15:53N 47°48' W 004°17'0 0.0
2017-Sep-19 14:58N 47°48' W 004°17'0 0.0
2017-Sep-19 13:58N 47°48' W 004°17'0 0.0
2017-Sep-19 12:58N 47°48' W 004°17'  
2017-Sep-14 05:46N 47°42' W 004°55'2 2.9
2017-Sep-14 05:13N 47°41' W 004°53'3 1.3
2017-Sep-14 02:39N 47°42' W 004°58'1 2.7
2017-Sep-14 02:12N 47°42' W 004°56'1 2.8
2017-Sep-14 01:59N 47°42' W 004°55'1 1.0
2017-Sep-14 00:36N 47°42' W 004°57'1 2.8
2017-Sep-14 00:24N 47°42' W 004°56'1 2.7
2017-Sep-14 00:00N 47°42' W 004°55'2 2.8
2017-Sep-13 23:26N 47°41' W 004°53'2 3.2
2017-Sep-13 22:58N 47°40' W 004°51'5 2.5
2017-Sep-13 21:01N 47°42' W 004°58'0 3.0
2017-Sep-13 20:57N 47°42' W 004°58'2 2.8
2017-Sep-13 20:23N 47°42' W 004°55'1 3.1
2017-Sep-13 20:00N 47°41' W 004°54'2 3.0
2017-Sep-13 19:29N 47°41' W 004°52'3 1.1
2017-Sep-13 16:39N 47°43' W 004°54'1 0.8
2017-Sep-13 15:30N 47°44' W 004°54'2 3.2
2017-Sep-13 15:00N 47°44' W 004°52'2 3.2
2017-Sep-13 14:29N 47°43' W 004°50'6 2.6
2017-Sep-13 12:17N 47°44' W 004°58'1 2.7
2017-Sep-13 12:00N 47°44' W 004°57'2 2.7
2017-Sep-13 11:22N 47°44' W 004°54'1 2.8
2017-Sep-13 10:57N 47°44' W 004°53'1 2.7
2017-Sep-13 10:30N 47°44' W 004°51'3 1.8
2017-Sep-13 08:42N 47°44' W 004°56'1 1.8
2017-Sep-13 08:24N 47°44' W 004°55'2 3.2
2017-Sep-13 07:55N 47°44' W 004°53'1 3.2
2017-Sep-13 07:29N 47°44' W 004°51'15 3.9
2017-Sep-13 03:37N 47°45' W 004°29'1 6.2
2017-Sep-13 03:29N 47°45' W 004°27'3 6.1
2017-Sep-13 02:54N 47°46' W 004°22'22 1.9
2017-Sep-12 15:21N 47°44' W 004°55'1 2.5
2017-Sep-12 15:00N 47°44' W 004°53'2 3.3
2017-Sep-12 14:30N 47°44' W 004°51'2 3.4
2017-Sep-12 14:00N 47°43' W 004°49'3 1.7
2017-Sep-12 12:14N 47°44' W 004°53'1 0.6
2017-Sep-12 10:29N 47°44' W 004°55'1 0.5
2017-Sep-12 08:01N 47°44' W 004°53'0 3.0
2017-Sep-12 07:59N 47°44' W 004°53'2 3.0
2017-Sep-12 07:25N 47°43' W 004°50'18 4.9
2017-Sep-12 03:48N 47°45' W 004°24'  
Track history (hours):
 
Tides and Currents Weather Stations Pressure Air Temp Water Temp Dewpoint Dewpoint Depression Visibility Wind Speed Wind Dir Waves Ship Positions

F/V Manathia

Last reported at 2017-Sep-22 01:06 UTC. Time now 2017-Sep-22 17:04 UTC.
Position N 47°40' W 004°57'.

Length 16 m.

Type: Fishing. MMSI: 228258000.

Date/timePositionNaut miles runAvg speedWind from/ knotsBaromVisibWave heightAir tempDewpointWater temp
2017-Sep-22 01:06N 47°40' W 004°57'0 3.3
2017-Sep-22 01:00N 47°41' W 004°57'2 3.4
2017-Sep-22 00:30N 47°40' W 004°54'1 2.4
2017-Sep-21 23:54N 47°39' W 004°53'8 2.9
2017-Sep-21 21:01N 47°31' W 004°54'22 3.9
2017-Sep-21 15:21N 47°43' W 004°26'3 8.2
2017-Sep-21 14:58N 47°45' W 004°23'23 3.3
2017-Sep-21 07:55N 47°40' W 004°57'1 3.2
2017-Sep-21 07:27N 47°40' W 004°55'1 1.3
2017-Sep-21 06:30N 47°39' W 004°53'3 1.2
2017-Sep-21 03:54N 47°40' W 004°58'1 3.0
2017-Sep-21 03:30N 47°41' W 004°56'1 2.9
2017-Sep-21 03:00N 47°42' W 004°55'1 0.8
2017-Sep-21 01:58N 47°43' W 004°55'1 2.7
2017-Sep-21 01:27N 47°44' W 004°55'1 2.9
2017-Sep-21 01:00N 47°45' W 004°53'2 2.9
2017-Sep-21 00:29N 47°43' W 004°54'2 3.9
2017-Sep-20 23:59N 47°42' W 004°55'2 3.7
2017-Sep-20 23:30N 47°41' W 004°53'2 3.8
2017-Sep-20 22:53N 47°40' W 004°49'1 1.1
2017-Sep-20 22:27N 47°40' W 004°49'6 3.3
2017-Sep-20 20:43N 47°41' W 004°57'1 3.4
2017-Sep-20 20:26N 47°42' W 004°58'1 3.2
2017-Sep-20 20:00N 47°42' W 004°56'2 3.3
2017-Sep-20 19:30N 47°41' W 004°54'2 3.4
2017-Sep-20 18:58N 47°40' W 004°51'1 0.9
2017-Sep-20 18:08N 47°40' W 004°52'1 3.3
2017-Sep-20 17:56N 47°40' W 004°53'1 3.1
2017-Sep-20 17:30N 47°38' W 004°54'2 3.1
2017-Sep-20 16:59N 47°37' W 004°54'2 3.0
2017-Sep-20 16:28N 47°35' W 004°54'2 3.2
2017-Sep-20 15:57N 47°34' W 004°55'2 3.2
2017-Sep-20 15:17N 47°32' W 004°56'1 3.1
2017-Sep-20 14:56N 47°31' W 004°55'3 2.9
2017-Sep-20 14:00N 47°30' W 004°51'2 3.0
2017-Sep-20 13:30N 47°30' W 004°49'4 2.9
2017-Sep-20 12:10N 47°31' W 004°43'1 3.0
2017-Sep-20 11:59N 47°31' W 004°42'2 3.1
2017-Sep-20 11:27N 47°33' W 004°41'2 3.1
2017-Sep-20 10:54N 47°34' W 004°40'1 3.3
2017-Sep-20 10:30N 47°35' W 004°38'3 4.7
2017-Sep-20 09:56N 47°36' W 004°35'4 8.3
2017-Sep-20 09:28N 47°39' W 004°31'4 8.4
2017-Sep-20 08:58N 47°42' W 004°26'8 8.3
2017-Sep-20 08:03N 47°47' W 004°18'1 6.9
2017-Sep-20 07:58N 47°47' W 004°17'1 0.0
2017-Sep-19 15:53N 47°48' W 004°17'0 0.0
2017-Sep-19 14:58N 47°48' W 004°17'0 0.0
2017-Sep-19 13:58N 47°48' W 004°17'0 0.0
2017-Sep-19 12:58N 47°48' W 004°17'  
2017-Sep-14 05:46N 47°42' W 004°55'2 2.9
2017-Sep-14 05:13N 47°41' W 004°53'3 1.3
2017-Sep-14 02:39N 47°42' W 004°58'1 2.7
2017-Sep-14 02:12N 47°42' W 004°56'1 2.8
2017-Sep-14 01:59N 47°42' W 004°55'1 1.0
2017-Sep-14 00:36N 47°42' W 004°57'1 2.8
2017-Sep-14 00:24N 47°42' W 004°56'1 2.7
2017-Sep-14 00:00N 47°42' W 004°55'2 2.8
2017-Sep-13 23:26N 47°41' W 004°53'2 3.2
2017-Sep-13 22:58N 47°40' W 004°51'5 2.5
2017-Sep-13 21:01N 47°42' W 004°58'0 3.0
2017-Sep-13 20:57N 47°42' W 004°58'2 2.8
2017-Sep-13 20:23N 47°42' W 004°55'1 3.1
2017-Sep-13 20:00N 47°41' W 004°54'2 3.0
2017-Sep-13 19:29N 47°41' W 004°52'3 1.1
2017-Sep-13 16:39N 47°43' W 004°54'1 0.8
2017-Sep-13 15:30N 47°44' W 004°54'2 3.2
2017-Sep-13 15:00N 47°44' W 004°52'2 3.2
2017-Sep-13 14:29N 47°43' W 004°50'6 2.6
2017-Sep-13 12:17N 47°44' W 004°58'1 2.7
2017-Sep-13 12:00N 47°44' W 004°57'2 2.7
2017-Sep-13 11:22N 47°44' W 004°54'1 2.8
2017-Sep-13 10:57N 47°44' W 004°53'1 2.7
2017-Sep-13 10:30N 47°44' W 004°51'3 1.8
2017-Sep-13 08:42N 47°44' W 004°56'1 1.8
2017-Sep-13 08:24N 47°44' W 004°55'2 3.2
2017-Sep-13 07:55N 47°44' W 004°53'1 3.2
2017-Sep-13 07:29N 47°44' W 004°51'15 3.9
2017-Sep-13 03:37N 47°45' W 004°29'1 6.2
2017-Sep-13 03:29N 47°45' W 004°27'3 6.1
2017-Sep-13 02:54N 47°46' W 004°22'22 1.9
2017-Sep-12 15:21N 47°44' W 004°55'1 2.5
2017-Sep-12 15:00N 47°44' W 004°53'2 3.3
2017-Sep-12 14:30N 47°44' W 004°51'2 3.4
2017-Sep-12 14:00N 47°43' W 004°49'3 1.7
2017-Sep-12 12:14N 47°44' W 004°53'1 0.6
2017-Sep-12 10:29N 47°44' W 004°55'1 0.5
2017-Sep-12 08:01N 47°44' W 004°53'0 3.0
2017-Sep-12 07:59N 47°44' W 004°53'2 3.0
2017-Sep-12 07:25N 47°43' W 004°50'18 4.9
2017-Sep-12 03:48N 47°45' W 004°24'  

Dump ship's entire track history